VLG3FQ LEBL-LEZL
Flight info
| Callsign | VLG3FQ |
|---|---|
| Flight time | 1h 14m |
| Altitude | 31000 |
| Route | LOTOS DCT TORDU DCT DIKUT DCT SOPET DCT VLC DCT SERRA DCT ASTRO DCT POBOS DCT XEBAR DCT YES DCT BLN |
| Aircraft | A320/M-SDFGHILORVWXY/LB1 |
Departure
| Time | 2026-04-16 13:19 |
|---|---|
| Airport | Josep Tarradellas Barcelona-El Prat Airport (LEBL) |
Arrival
| Time | 2026-04-16 14:34 |
|---|---|
| Airport | Seville Airport (LEZL) |
| Time | Latitude | Longitude | Altitude | Speed | Heading |
|---|---|---|---|---|---|
| 2026-04-16 12:45 | 41.29031 | 2.08049 | 20 ft | 0 kts | 335° |
| 2026-04-16 13:09 | 41.29012 | 2.08060 | 21 ft | 4 kts | 335° |
| 2026-04-16 13:09 | 41.28987 | 2.08075 | 22 ft | 4 kts | 335° |
| 2026-04-16 13:09 | 41.28964 | 2.08084 | 22 ft | 4 kts | 17° |
| 2026-04-16 13:10 | 41.28949 | 2.08069 | 23 ft | 2 kts | 65° |
| 2026-04-16 13:10 | 41.28943 | 2.08049 | 20 ft | 0 kts | 65° |
| 2026-04-16 13:12 | 41.28943 | 2.08050 | 20 ft | 1 kts | 65° |
| 2026-04-16 13:13 | 41.28950 | 2.08071 | 23 ft | 4 kts | 65° |
| 2026-04-16 13:13 | 41.28948 | 2.08110 | 20 ft | 8 kts | 115° |
| 2026-04-16 13:13 | 41.28881 | 2.08160 | 19 ft | 14 kts | 159° |
| 2026-04-16 13:13 | 41.28780 | 2.08222 | 16 ft | 18 kts | 158° |
| 2026-04-16 13:14 | 41.28707 | 2.08286 | 17 ft | 7 kts | 77° |
| 2026-04-16 13:14 | 41.28739 | 2.08369 | 16 ft | 11 kts | 64° |
| 2026-04-16 13:14 | 41.28765 | 2.08448 | 17 ft | 7 kts | 66° |
| 2026-04-16 13:14 | 41.28789 | 2.08519 | 18 ft | 13 kts | 66° |
| 2026-04-16 13:15 | 41.28831 | 2.08638 | 17 ft | 14 kts | 65° |
| 2026-04-16 13:15 | 41.28856 | 2.08712 | 17 ft | 13 kts | 65° |
| 2026-04-16 13:15 | 41.28894 | 2.08823 | 16 ft | 13 kts | 65° |
| 2026-04-16 13:15 | 41.28929 | 2.08926 | 16 ft | 12 kts | 65° |
| 2026-04-16 13:16 | 41.28962 | 2.09023 | 16 ft | 11 kts | 65° |
| 2026-04-16 13:16 | 41.28993 | 2.09114 | 18 ft | 10 kts | 65° |
| 2026-04-16 13:16 | 41.29023 | 2.09201 | 17 ft | 13 kts | 65° |
| 2026-04-16 13:16 | 41.29075 | 2.09353 | 17 ft | 19 kts | 65° |
| 2026-04-16 13:17 | 41.29128 | 2.09504 | 17 ft | 17 kts | 65° |
| 2026-04-16 13:17 | 41.29177 | 2.09646 | 17 ft | 16 kts | 65° |
| 2026-04-16 13:17 | 41.29222 | 2.09778 | 17 ft | 15 kts | 66° |
| 2026-04-16 13:17 | 41.29263 | 2.09902 | 19 ft | 14 kts | 66° |
| 2026-04-16 13:18 | 41.29273 | 2.10023 | 16 ft | 13 kts | 108° |
| 2026-04-16 13:18 | 41.29241 | 2.10138 | 16 ft | 13 kts | 107° |
| 2026-04-16 13:18 | 41.29251 | 2.10245 | 16 ft | 12 kts | 79° |
| 2026-04-16 13:18 | 41.29213 | 2.10300 | 15 ft | 7 kts | 210° |
| 2026-04-16 13:19 | 41.29203 | 2.10273 | 16 ft | 8 kts | 245° |
| 2026-04-16 13:19 | 41.29082 | 2.09925 | 21 ft | 81 kts | 245° |
| 2026-04-16 13:19 | 41.28749 | 2.08956 | 27 ft | 146 kts | 244° |
| 2026-04-16 13:19 | 41.28295 | 2.07663 | 664 ft | 154 kts | 242° |
| 2026-04-16 13:20 | 41.27523 | 2.06676 | 1367 ft | 165 kts | 206° |
| 2026-04-16 13:20 | 41.26304 | 2.06351 | 1804 ft | 191 kts | 190° |
| 2026-04-16 13:20 | 41.24889 | 2.06212 | 2176 ft | 219 kts | 187° |
| 2026-04-16 13:20 | 41.23353 | 2.06107 | 3148 ft | 217 kts | 187° |
| 2026-04-16 13:21 | 41.21848 | 2.06007 | 4239 ft | 216 kts | 187° |
| 2026-04-16 13:21 | 41.20297 | 2.05892 | 5066 ft | 225 kts | 187° |
| 2026-04-16 13:21 | 41.18731 | 2.05766 | 5854 ft | 231 kts | 186° |
| 2026-04-16 13:21 | 41.17126 | 2.05335 | 6640 ft | 239 kts | 203° |
| 2026-04-16 13:22 | 41.15581 | 2.04312 | 7175 ft | 257 kts | 213° |
| 2026-04-16 13:22 | 41.14248 | 2.02637 | 7662 ft | 275 kts | 237° |
| 2026-04-16 13:22 | 41.13140 | 2.00519 | 8501 ft | 282 kts | 238° |
| 2026-04-16 13:22 | 41.12015 | 1.98362 | 9451 ft | 287 kts | 238° |
| 2026-04-16 13:23 | 41.10871 | 1.96171 | 10362 ft | 292 kts | 237° |
| 2026-04-16 13:23 | 41.09483 | 1.93570 | 10838 ft | 319 kts | 236° |
| 2026-04-16 13:23 | 41.08209 | 1.91320 | 11339 ft | 332 kts | 234° |
| 2026-04-16 13:23 | 41.06782 | 1.88876 | 12123 ft | 339 kts | 234° |
| 2026-04-16 13:24 | 41.05320 | 1.86392 | 12933 ft | 344 kts | 234° |
| 2026-04-16 13:24 | 41.03843 | 1.83875 | 13741 ft | 349 kts | 234° |
| 2026-04-16 13:24 | 41.02340 | 1.81298 | 14486 ft | 354 kts | 234° |
| 2026-04-16 13:24 | 41.00818 | 1.78676 | 15209 ft | 358 kts | 234° |
| 2026-04-16 13:25 | 40.99298 | 1.76048 | 15928 ft | 361 kts | 235° |
| 2026-04-16 13:25 | 40.97763 | 1.73389 | 16649 ft | 365 kts | 235° |
| 2026-04-16 13:25 | 40.96215 | 1.70712 | 17371 ft | 369 kts | 235° |
| 2026-04-16 13:25 | 40.94624 | 1.67967 | 18096 ft | 373 kts | 235° |
| 2026-04-16 13:26 | 40.93036 | 1.65236 | 18763 ft | 377 kts | 235° |
| 2026-04-16 13:26 | 40.91364 | 1.62365 | 19370 ft | 380 kts | 235° |
| 2026-04-16 13:26 | 40.89744 | 1.59584 | 19964 ft | 384 kts | 235° |
| 2026-04-16 13:26 | 40.88105 | 1.56763 | 20566 ft | 388 kts | 235° |
| 2026-04-16 13:27 | 40.86431 | 1.53885 | 21158 ft | 392 kts | 235° |
| 2026-04-16 13:27 | 40.84761 | 1.51017 | 21734 ft | 395 kts | 235° |
| 2026-04-16 13:27 | 40.83080 | 1.48137 | 22312 ft | 398 kts | 235° |
| 2026-04-16 13:27 | 40.81383 | 1.45231 | 22896 ft | 401 kts | 235° |
| 2026-04-16 13:28 | 40.79669 | 1.42300 | 23432 ft | 405 kts | 235° |
| 2026-04-16 13:28 | 40.77934 | 1.39339 | 23959 ft | 408 kts | 235° |
| 2026-04-16 13:28 | 40.76191 | 1.36364 | 24420 ft | 411 kts | 235° |
| 2026-04-16 13:28 | 40.74437 | 1.33372 | 24880 ft | 414 kts | 235° |
| 2026-04-16 13:29 | 40.72666 | 1.30357 | 25333 ft | 417 kts | 235° |
| 2026-04-16 13:29 | 40.70888 | 1.27332 | 25787 ft | 420 kts | 235° |
| 2026-04-16 13:29 | 40.69094 | 1.24281 | 26233 ft | 422 kts | 235° |
| 2026-04-16 13:29 | 40.67266 | 1.21169 | 26677 ft | 425 kts | 235° |
| 2026-04-16 13:30 | 40.66066 | 1.19124 | 26967 ft | 427 kts | 235° |
| 2026-04-16 13:30 | 40.64247 | 1.16025 | 27400 ft | 429 kts | 235° |
| 2026-04-16 13:30 | 40.62413 | 1.12909 | 27828 ft | 431 kts | 235° |
| 2026-04-16 13:30 | 40.60576 | 1.09793 | 28300 ft | 433 kts | 235° |
| 2026-04-16 13:31 | 40.58704 | 1.06619 | 28735 ft | 435 kts | 235° |
| 2026-04-16 13:31 | 40.56789 | 1.03373 | 29161 ft | 438 kts | 235° |
| 2026-04-16 13:31 | 40.54911 | 1.00206 | 29568 ft | 441 kts | 234° |
| 2026-04-16 13:31 | 40.52937 | 0.97101 | 29965 ft | 444 kts | 231° |
| 2026-04-16 13:32 | 40.50862 | 0.94073 | 30344 ft | 447 kts | 230° |
| 2026-04-16 13:32 | 40.48721 | 0.91090 | 30671 ft | 450 kts | 229° |
| 2026-04-16 13:32 | 40.46525 | 0.88083 | 31000 ft | 452 kts | 229° |
| 2026-04-16 13:32 | 40.44340 | 0.85084 | 31289 ft | 455 kts | 229° |
| 2026-04-16 13:33 | 40.42164 | 0.82061 | 31601 ft | 457 kts | 229° |
| 2026-04-16 13:33 | 40.40002 | 0.79014 | 31913 ft | 458 kts | 230° |
| 2026-04-16 13:33 | 40.37775 | 0.75844 | 32305 ft | 457 kts | 230° |
| 2026-04-16 13:33 | 40.35636 | 0.72787 | 32845 ft | 454 kts | 230° |
| 2026-04-16 13:34 | 40.33506 | 0.69748 | 33350 ft | 451 kts | 230° |
| 2026-04-16 13:34 | 40.31387 | 0.66733 | 33813 ft | 449 kts | 230° |
| 2026-04-16 13:34 | 40.29269 | 0.63731 | 34257 ft | 448 kts | 230° |
| 2026-04-16 13:34 | 40.27153 | 0.60743 | 34643 ft | 447 kts | 230° |
| 2026-04-16 13:35 | 40.25017 | 0.57731 | 35011 ft | 446 kts | 230° |
| 2026-04-16 13:35 | 40.22913 | 0.54768 | 35353 ft | 445 kts | 230° |
| 2026-04-16 13:35 | 40.20797 | 0.51793 | 35693 ft | 444 kts | 230° |
| 2026-04-16 13:35 | 40.18698 | 0.48841 | 36031 ft | 443 kts | 230° |
| 2026-04-16 13:36 | 40.16599 | 0.45889 | 36367 ft | 443 kts | 230° |
| 2026-04-16 13:36 | 40.14505 | 0.42945 | 36678 ft | 442 kts | 230° |
| 2026-04-16 13:36 | 40.12411 | 0.39999 | 36991 ft | 441 kts | 230° |
| 2026-04-16 13:36 | 40.10321 | 0.37064 | 37178 ft | 440 kts | 230° |
| 2026-04-16 13:37 | 40.08245 | 0.34155 | 37217 ft | 436 kts | 230° |
| 2026-04-16 13:37 | 40.04125 | 0.28402 | 37212 ft | 433 kts | 230° |
| 2026-04-16 13:38 | 40.00015 | 0.22670 | 37214 ft | 433 kts | 230° |
| 2026-04-16 13:38 | 39.95912 | 0.16936 | 37212 ft | 433 kts | 230° |
| 2026-04-16 13:39 | 39.91769 | 0.11154 | 37210 ft | 433 kts | 230° |
| 2026-04-16 13:39 | 39.87645 | 0.05438 | 37213 ft | 433 kts | 230° |
| 2026-04-16 13:40 | 39.83517 | -0.00268 | 37214 ft | 433 kts | 230° |
| 2026-04-16 13:40 | 39.79402 | -0.05973 | 37197 ft | 432 kts | 231° |
| 2026-04-16 13:41 | 39.75258 | -0.11704 | 37204 ft | 432 kts | 230° |
| 2026-04-16 13:41 | 39.71128 | -0.17386 | 37208 ft | 432 kts | 230° |
| 2026-04-16 13:42 | 39.67008 | -0.23052 | 37206 ft | 432 kts | 230° |
| 2026-04-16 13:42 | 39.62886 | -0.28724 | 37202 ft | 432 kts | 230° |
| 2026-04-16 13:43 | 39.58757 | -0.34381 | 37192 ft | 432 kts | 230° |
| 2026-04-16 13:43 | 39.54625 | -0.40031 | 37198 ft | 432 kts | 231° |
| 2026-04-16 13:44 | 39.50489 | -0.45680 | 37194 ft | 432 kts | 231° |
| 2026-04-16 13:44 | 39.46641 | -0.51592 | 37198 ft | 428 kts | 237° |
| 2026-04-16 13:45 | 39.43050 | -0.57741 | 37211 ft | 429 kts | 237° |
| 2026-04-16 13:45 | 39.39441 | -0.63882 | 37211 ft | 429 kts | 237° |
| 2026-04-16 13:46 | 39.35835 | -0.70020 | 37207 ft | 429 kts | 237° |
| 2026-04-16 13:46 | 39.32199 | -0.76188 | 37211 ft | 429 kts | 237° |
| 2026-04-16 13:47 | 39.28586 | -0.82302 | 37210 ft | 428 kts | 237° |
| 2026-04-16 13:47 | 39.24977 | -0.88408 | 37217 ft | 427 kts | 237° |
| 2026-04-16 13:48 | 39.21374 | -0.94505 | 37223 ft | 427 kts | 237° |
| 2026-04-16 13:48 | 39.17770 | -1.00589 | 37222 ft | 427 kts | 237° |
| 2026-04-16 13:49 | 39.14155 | -1.06668 | 37220 ft | 427 kts | 237° |
| 2026-04-16 13:49 | 39.10544 | -1.12721 | 37222 ft | 427 kts | 238° |
| 2026-04-16 13:50 | 39.06928 | -1.18783 | 37214 ft | 426 kts | 238° |
| 2026-04-16 13:50 | 39.03290 | -1.24862 | 37229 ft | 426 kts | 238° |
| 2026-04-16 13:51 | 38.99671 | -1.30903 | 37235 ft | 426 kts | 238° |
| 2026-04-16 13:51 | 38.96060 | -1.36933 | 37234 ft | 425 kts | 238° |
| 2026-04-16 13:52 | 38.93033 | -1.41971 | 37237 ft | 425 kts | 238° |
| 2026-04-16 13:52 | 38.89417 | -1.47985 | 37241 ft | 425 kts | 238° |
| 2026-04-16 13:53 | 38.85792 | -1.53986 | 37232 ft | 425 kts | 237° |
| 2026-04-16 13:53 | 38.82153 | -1.60000 | 37246 ft | 423 kts | 237° |
| 2026-04-16 13:54 | 38.78542 | -1.65963 | 37247 ft | 423 kts | 237° |
| 2026-04-16 13:54 | 38.74938 | -1.71906 | 37247 ft | 422 kts | 237° |
| 2026-04-16 13:55 | 38.71340 | -1.77836 | 37247 ft | 421 kts | 237° |
| 2026-04-16 13:55 | 38.67742 | -1.83752 | 37242 ft | 421 kts | 237° |
| 2026-04-16 13:56 | 38.64138 | -1.89659 | 37239 ft | 421 kts | 237° |
| 2026-04-16 13:56 | 38.60532 | -1.95553 | 37237 ft | 420 kts | 237° |
| 2026-04-16 13:57 | 38.56928 | -2.01428 | 37243 ft | 419 kts | 237° |
| 2026-04-16 13:57 | 38.53324 | -2.07296 | 37243 ft | 419 kts | 237° |
| 2026-04-16 13:58 | 38.47904 | -2.16118 | 37232 ft | 419 kts | 237° |
| 2026-04-16 13:58 | 38.44310 | -2.21956 | 37231 ft | 419 kts | 237° |
| 2026-04-16 13:59 | 38.40709 | -2.27790 | 37229 ft | 418 kts | 237° |
| 2026-04-16 13:59 | 38.37248 | -2.33722 | 37219 ft | 413 kts | 245° |
| 2026-04-16 14:00 | 38.35249 | -2.40443 | 37224 ft | 403 kts | 262° |
| 2026-04-16 14:00 | 38.34154 | -2.47444 | 37219 ft | 403 kts | 262° |
| 2026-04-16 14:01 | 38.33035 | -2.54480 | 37216 ft | 402 kts | 262° |
| 2026-04-16 14:01 | 38.31920 | -2.61460 | 37208 ft | 402 kts | 262° |
| 2026-04-16 14:02 | 38.30790 | -2.68487 | 37202 ft | 402 kts | 261° |
| 2026-04-16 14:02 | 38.29655 | -2.75463 | 37183 ft | 403 kts | 261° |
| 2026-04-16 14:03 | 38.28515 | -2.82439 | 37188 ft | 403 kts | 261° |
| 2026-04-16 14:03 | 38.27391 | -2.89439 | 37189 ft | 403 kts | 261° |
| 2026-04-16 14:04 | 38.26254 | -2.96418 | 37185 ft | 403 kts | 261° |
| 2026-04-16 14:04 | 38.25114 | -3.03390 | 37183 ft | 402 kts | 261° |
| 2026-04-16 14:05 | 38.23967 | -3.10404 | 37167 ft | 403 kts | 261° |
| 2026-04-16 14:05 | 38.22822 | -3.17382 | 37168 ft | 403 kts | 261° |
| 2026-04-16 14:06 | 38.21663 | -3.24356 | 37161 ft | 403 kts | 261° |
| 2026-04-16 14:06 | 38.20498 | -3.31333 | 37162 ft | 403 kts | 261° |
| 2026-04-16 14:07 | 38.19331 | -3.38304 | 37160 ft | 403 kts | 261° |
| 2026-04-16 14:07 | 38.18158 | -3.45281 | 37143 ft | 403 kts | 260° |
| 2026-04-16 14:08 | 38.16988 | -3.52250 | 37144 ft | 404 kts | 260° |
| 2026-04-16 14:08 | 38.15805 | -3.59242 | 37147 ft | 404 kts | 260° |
| 2026-04-16 14:09 | 38.14545 | -3.66255 | 37144 ft | 405 kts | 258° |
| 2026-04-16 14:09 | 38.13073 | -3.73185 | 37001 ft | 408 kts | 257° |
| 2026-04-16 14:10 | 38.12311 | -3.76638 | 36554 ft | 404 kts | 257° |
| 2026-04-16 14:10 | 38.11555 | -3.80058 | 36063 ft | 401 kts | 257° |
| 2026-04-16 14:10 | 38.10814 | -3.83454 | 35559 ft | 398 kts | 256° |
| 2026-04-16 14:10 | 38.10087 | -3.86838 | 35054 ft | 396 kts | 257° |
| 2026-04-16 14:11 | 38.09368 | -3.90220 | 34536 ft | 395 kts | 257° |
| 2026-04-16 14:11 | 38.08651 | -3.93580 | 33912 ft | 395 kts | 256° |
| 2026-04-16 14:11 | 38.07852 | -3.96963 | 32985 ft | 403 kts | 254° |
| 2026-04-16 14:11 | 38.06970 | -4.00334 | 32450 ft | 401 kts | 253° |
| 2026-04-16 14:12 | 38.06054 | -4.03661 | 31901 ft | 399 kts | 252° |
| 2026-04-16 14:12 | 38.05132 | -4.06964 | 31346 ft | 397 kts | 252° |
| 2026-04-16 14:12 | 38.04218 | -4.10254 | 30816 ft | 395 kts | 253° |
| 2026-04-16 14:12 | 38.03303 | -4.13589 | 30269 ft | 393 kts | 253° |
| 2026-04-16 14:13 | 38.02419 | -4.16854 | 29683 ft | 391 kts | 253° |
| 2026-04-16 14:13 | 38.01535 | -4.20148 | 29152 ft | 387 kts | 253° |
| 2026-04-16 14:13 | 38.00664 | -4.23407 | 28625 ft | 383 kts | 253° |
| 2026-04-16 14:13 | 38.00088 | -4.25560 | 28273 ft | 381 kts | 253° |
| 2026-04-16 14:14 | 37.99194 | -4.28897 | 27740 ft | 377 kts | 253° |
| 2026-04-16 14:14 | 37.98359 | -4.32015 | 27249 ft | 374 kts | 252° |
| 2026-04-16 14:14 | 37.97521 | -4.35130 | 26773 ft | 370 kts | 252° |
| 2026-04-16 14:14 | 37.96678 | -4.38246 | 26279 ft | 367 kts | 252° |
| 2026-04-16 14:15 | 37.95851 | -4.41295 | 25838 ft | 364 kts | 252° |
| 2026-04-16 14:15 | 37.95032 | -4.44312 | 25390 ft | 361 kts | 252° |
| 2026-04-16 14:15 | 37.94216 | -4.47312 | 24944 ft | 359 kts | 252° |
| 2026-04-16 14:15 | 37.93408 | -4.50287 | 24514 ft | 356 kts | 252° |
| 2026-04-16 14:16 | 37.92606 | -4.53246 | 24064 ft | 354 kts | 251° |
| 2026-04-16 14:16 | 37.91805 | -4.56188 | 23603 ft | 352 kts | 251° |
| 2026-04-16 14:16 | 37.91009 | -4.59110 | 23113 ft | 350 kts | 251° |
| 2026-04-16 14:16 | 37.90222 | -4.61999 | 22675 ft | 347 kts | 251° |
| 2026-04-16 14:17 | 37.89425 | -4.64914 | 22217 ft | 344 kts | 251° |
| 2026-04-16 14:17 | 37.88654 | -4.67734 | 21766 ft | 342 kts | 251° |
| 2026-04-16 14:17 | 37.87869 | -4.70607 | 21297 ft | 340 kts | 251° |
| 2026-04-16 14:17 | 37.87096 | -4.73430 | 20839 ft | 339 kts | 251° |
| 2026-04-16 14:18 | 37.86325 | -4.76242 | 20385 ft | 337 kts | 251° |
| 2026-04-16 14:18 | 37.85556 | -4.79046 | 19925 ft | 337 kts | 251° |
| 2026-04-16 14:18 | 37.84788 | -4.81840 | 19471 ft | 336 kts | 251° |
| 2026-04-16 14:18 | 37.84018 | -4.84636 | 19011 ft | 336 kts | 251° |
| 2026-04-16 14:19 | 37.83248 | -4.87428 | 18559 ft | 337 kts | 251° |
| 2026-04-16 14:19 | 37.82477 | -4.90218 | 18066 ft | 336 kts | 250° |
| 2026-04-16 14:19 | 37.81706 | -4.93009 | 17610 ft | 335 kts | 250° |
| 2026-04-16 14:19 | 37.80939 | -4.95782 | 17168 ft | 334 kts | 250° |
| 2026-04-16 14:20 | 37.80174 | -4.98546 | 16725 ft | 332 kts | 250° |
| 2026-04-16 14:20 | 37.79402 | -5.01340 | 16280 ft | 331 kts | 250° |
| 2026-04-16 14:20 | 37.78643 | -5.04088 | 15844 ft | 331 kts | 250° |
| 2026-04-16 14:20 | 37.77885 | -5.06827 | 15414 ft | 330 kts | 250° |
| 2026-04-16 14:21 | 37.77125 | -5.09564 | 14977 ft | 330 kts | 250° |
| 2026-04-16 14:21 | 37.76365 | -5.12299 | 14536 ft | 330 kts | 250° |
| 2026-04-16 14:21 | 37.75604 | -5.15037 | 14099 ft | 330 kts | 250° |
| 2026-04-16 14:21 | 37.74842 | -5.17777 | 13619 ft | 330 kts | 250° |
| 2026-04-16 14:22 | 37.74081 | -5.20502 | 13163 ft | 329 kts | 250° |
| 2026-04-16 14:22 | 37.73320 | -5.23222 | 12710 ft | 327 kts | 250° |
| 2026-04-16 14:22 | 37.72563 | -5.25930 | 12266 ft | 326 kts | 250° |
| 2026-04-16 14:22 | 37.71808 | -5.28617 | 11806 ft | 324 kts | 250° |
| 2026-04-16 14:23 | 37.71046 | -5.31333 | 11362 ft | 323 kts | 250° |
| 2026-04-16 14:23 | 37.70312 | -5.33955 | 11222 ft | 311 kts | 250° |
| 2026-04-16 14:23 | 37.69604 | -5.36484 | 11073 ft | 301 kts | 250° |
| 2026-04-16 14:23 | 37.68914 | -5.38954 | 10725 ft | 298 kts | 250° |
| 2026-04-16 14:24 | 37.68224 | -5.41413 | 10339 ft | 297 kts | 250° |
| 2026-04-16 14:24 | 37.67534 | -5.43859 | 10042 ft | 293 kts | 250° |
| 2026-04-16 14:24 | 37.66854 | -5.46261 | 9398 ft | 289 kts | 250° |
| 2026-04-16 14:24 | 37.66185 | -5.48632 | 8907 ft | 287 kts | 250° |
| 2026-04-16 14:25 | 37.65518 | -5.51008 | 8494 ft | 286 kts | 250° |
| 2026-04-16 14:25 | 37.64618 | -5.53209 | 8101 ft | 282 kts | 231° |
| 2026-04-16 14:25 | 37.63254 | -5.54940 | 7513 ft | 275 kts | 222° |
| 2026-04-16 14:25 | 37.61851 | -5.56564 | 6867 ft | 272 kts | 222° |
| 2026-04-16 14:26 | 37.60450 | -5.58160 | 6211 ft | 270 kts | 221° |
| 2026-04-16 14:26 | 37.59047 | -5.59751 | 5725 ft | 271 kts | 221° |
| 2026-04-16 14:26 | 37.57675 | -5.61310 | 5568 ft | 259 kts | 221° |
| 2026-04-16 14:26 | 37.56325 | -5.62765 | 5438 ft | 245 kts | 213° |
| 2026-04-16 14:27 | 37.54843 | -5.63630 | 5278 ft | 227 kts | 195° |
| 2026-04-16 14:27 | 37.53301 | -5.63856 | 4920 ft | 222 kts | 178° |
| 2026-04-16 14:27 | 37.51788 | -5.63481 | 4478 ft | 222 kts | 160° |
| 2026-04-16 14:27 | 37.50433 | -5.62544 | 4117 ft | 224 kts | 145° |
| 2026-04-16 14:28 | 37.49140 | -5.61513 | 3987 ft | 216 kts | 152° |
| 2026-04-16 14:28 | 37.47793 | -5.60713 | 3787 ft | 213 kts | 161° |
| 2026-04-16 14:28 | 37.46338 | -5.60574 | 3494 ft | 209 kts | 192° |
| 2026-04-16 14:28 | 37.45070 | -5.61348 | 3172 ft | 203 kts | 221° |
| 2026-04-16 14:29 | 37.44275 | -5.62776 | 2876 ft | 200 kts | 250° |
| 2026-04-16 14:29 | 37.44034 | -5.64493 | 2596 ft | 199 kts | 263° |
| 2026-04-16 14:29 | 37.43877 | -5.66224 | 2495 ft | 199 kts | 263° |
| 2026-04-16 14:29 | 37.43704 | -5.67879 | 2501 ft | 182 kts | 262° |
| 2026-04-16 14:30 | 37.43547 | -5.69411 | 2503 ft | 172 kts | 263° |
| 2026-04-16 14:30 | 37.43409 | -5.70845 | 2510 ft | 156 kts | 263° |
| 2026-04-16 14:30 | 37.43282 | -5.72166 | 2462 ft | 150 kts | 263° |
| 2026-04-16 14:30 | 37.43159 | -5.73448 | 2264 ft | 146 kts | 263° |
| 2026-04-16 14:31 | 37.43038 | -5.74710 | 2075 ft | 145 kts | 263° |
| 2026-04-16 14:31 | 37.42918 | -5.75961 | 1889 ft | 143 kts | 263° |
| 2026-04-16 14:31 | 37.42791 | -5.77204 | 1702 ft | 143 kts | 258° |
| 2026-04-16 14:31 | 37.42486 | -5.78389 | 1497 ft | 142 kts | 248° |
| 2026-04-16 14:32 | 37.42122 | -5.79550 | 1284 ft | 142 kts | 251° |
| 2026-04-16 14:32 | 37.41894 | -5.80755 | 1079 ft | 142 kts | 262° |
| 2026-04-16 14:32 | 37.41813 | -5.81984 | 900 ft | 140 kts | 267° |
| 2026-04-16 14:32 | 37.41802 | -5.83213 | 748 ft | 141 kts | 270° |
| 2026-04-16 14:33 | 37.41815 | -5.84448 | 530 ft | 141 kts | 270° |
| 2026-04-16 14:33 | 37.41804 | -5.85687 | 385 ft | 140 kts | 269° |
| 2026-04-16 14:33 | 37.41804 | -5.86909 | 224 ft | 139 kts | 269° |
| 2026-04-16 14:33 | 37.41797 | -5.88099 | 109 ft | 128 kts | 269° |
| 2026-04-16 14:34 | 37.41792 | -5.89015 | 103 ft | 80 kts | 270° |
| 2026-04-16 14:34 | 37.41795 | -5.89564 | 99 ft | 55 kts | 269° |
| 2026-04-16 14:34 | 37.41792 | -5.90014 | 99 ft | 48 kts | 270° |
| 2026-04-16 14:34 | 37.41806 | -5.90281 | 99 ft | 15 kts | 314° |
| 2026-04-16 14:35 | 37.41885 | -5.90304 | 96 ft | 10 kts | 358° |
| 2026-04-16 14:35 | 37.41954 | -5.90300 | 96 ft | 10 kts | 16° |
| 2026-04-16 14:35 | 37.41980 | -5.90234 | 95 ft | 8 kts | 88° |
| 2026-04-16 14:35 | 37.41981 | -5.90163 | 95 ft | 8 kts | 88° |
| 2026-04-16 14:36 | 37.41980 | -5.90073 | 96 ft | 15 kts | 91° |
| 2026-04-16 14:36 | 37.41981 | -5.89935 | 96 ft | 17 kts | 89° |
| 2026-04-16 14:36 | 37.42032 | -5.89902 | 97 ft | 7 kts | 339° |
| 2026-04-16 14:36 | 37.42081 | -5.89925 | 95 ft | 8 kts | 339° |
| 2026-04-16 14:37 | 37.42132 | -5.89922 | 94 ft | 7 kts | 30° |
| 2026-04-16 14:37 | 37.42167 | -5.89881 | 94 ft | 6 kts | 43° |
| 2026-04-16 14:37 | 37.42187 | -5.89855 | 94 ft | 6 kts | 45° |
| 2026-04-16 14:37 | 37.42216 | -5.89823 | 94 ft | 4 kts | 27° |
| 2026-04-16 14:38 | 37.42241 | -5.89835 | 94 ft | 4 kts | 327° |
| 2026-04-16 14:38 | 37.42258 | -5.89858 | 94 ft | 4 kts | 313° |
| 2026-04-16 14:38 | 37.42275 | -5.89879 | 96 ft | 3 kts | 315° |
| 2026-04-16 14:38 | 37.42280 | -5.89885 | 94 ft | 0 kts | 315° |